createdAt,value
2022-09-06T00:01:15.251Z,5.63
2022-09-06T00:04:17.282Z,6.30
2022-09-06T00:07:18.985Z,5.82
2022-09-06T00:10:21.182Z,5.90
2022-09-06T00:13:22.835Z,6.65
2022-09-06T00:16:28.545Z,6.32
2022-09-06T00:19:32.070Z,6.30
2022-09-06T00:22:33.778Z,6.60
2022-09-06T00:25:35.909Z,6.15
2022-09-06T00:28:38.716Z,6.20
2022-09-06T00:31:40.392Z,6.07
2022-09-06T00:34:42.233Z,6.05
2022-09-06T00:37:44.200Z,6.20
2022-09-06T00:40:45.863Z,6.57
2022-09-06T00:43:47.663Z,6.40
2022-09-06T00:46:51.540Z,6.00
2022-09-06T00:49:56.705Z,6.70
2022-09-06T00:52:58.628Z,6.53
2022-09-06T00:56:00.733Z,6.28
2022-09-06T00:59:02.461Z,6.95
2022-09-06T01:02:05.670Z,6.35
2022-09-06T01:05:07.954Z,6.45
2022-09-06T01:08:40.288Z,6.90
2022-09-06T01:12:08.549Z,6.35
2022-09-06T01:15:35.205Z,6.97
2022-09-06T01:18:52.844Z,6.60
2022-09-06T01:22:25.605Z,6.45
2022-09-06T01:25:49.055Z,6.10
2022-09-06T01:28:52.857Z,6.72
2022-09-06T01:32:09.165Z,6.43
2022-09-06T01:35:34.019Z,7.05
2022-09-06T01:38:35.991Z,6.75
2022-09-06T01:41:37.641Z,6.32
2022-09-06T01:44:47.952Z,6.35
2022-09-06T01:48:17.009Z,6.63
2022-09-06T01:51:30.128Z,7.18
2022-09-06T01:54:57.871Z,6.75
2022-09-06T01:58:23.821Z,6.80
2022-09-06T02:01:41.215Z,7.03
2022-09-06T02:04:47.572Z,6.80
2022-09-06T02:07:52.703Z,6.35
2022-09-06T02:11:01.620Z,6.70
2022-09-06T02:14:10.317Z,6.57
2022-09-06T02:17:17.598Z,6.68
2022-09-06T02:20:24.906Z,6.68
2022-09-06T02:23:31.564Z,6.80
2022-09-06T02:26:38.761Z,6.57
2022-09-06T02:29:41.270Z,6.97
2022-09-06T02:32:49.946Z,7.10
2022-09-06T02:35:54.992Z,6.65
2022-09-06T02:38:57.192Z,6.95
2022-09-06T02:41:59.440Z,6.80
2022-09-06T02:45:01.089Z,6.57
2022-09-06T02:48:02.979Z,6.47
2022-09-06T02:51:06.267Z,6.78
2022-09-06T02:54:07.982Z,6.55
2022-09-06T02:57:09.588Z,6.78
2022-09-06T03:00:12.104Z,6.88
2022-09-06T03:03:14.468Z,6.93
2022-09-06T03:06:16.092Z,6.22
2022-09-06T03:09:17.787Z,6.40
2022-09-06T03:12:19.404Z,6.70
2022-09-06T03:15:22.423Z,6.80
2022-09-06T03:18:25.449Z,6.60
2022-09-06T03:21:27.197Z,6.57
2022-09-06T03:24:28.813Z,6.78
2022-09-06T03:27:30.427Z,6.60
2022-09-06T03:30:32.129Z,6.50
2022-09-06T03:33:33.903Z,6.38
2022-09-06T03:36:35.708Z,6.40
2022-09-06T03:39:37.366Z,6.68
2022-09-06T03:42:39.040Z,6.35
2022-09-06T03:45:44.467Z,6.53
2022-09-06T03:48:46.097Z,6.68
2022-09-06T03:51:48.109Z,5.90
2022-09-06T03:54:50.482Z,6.15
2022-09-06T03:57:52.339Z,6.10
2022-09-06T04:01:09.545Z,5.57
2022-09-06T04:04:11.354Z,6.28
2022-09-06T04:07:13.318Z,6.28
2022-09-06T04:10:15.375Z,6.32
2022-09-06T04:13:18.271Z,6.35
2022-09-06T04:16:20.170Z,5.97
2022-09-06T04:19:22.110Z,6.20
2022-09-06T04:22:23.969Z,5.90
2022-09-06T04:25:25.685Z,5.80
2022-09-06T04:28:28.007Z,5.95
2022-09-06T04:31:32.117Z,6.20
2022-09-06T04:34:34.241Z,5.65
2022-09-06T04:37:36.056Z,5.28
2022-09-06T04:40:37.638Z,6.32
2022-09-06T04:43:40.388Z,5.50
2022-09-06T04:46:42.641Z,5.78
2022-09-06T04:49:44.273Z,5.63
2022-09-06T04:52:46.348Z,5.68
2022-09-06T04:55:48.059Z,5.65
2022-09-06T04:58:50.961Z,5.63
2022-09-06T05:01:52.571Z,5.45
2022-09-06T05:04:54.808Z,5.72
2022-09-06T05:07:57.093Z,5.35
2022-09-06T05:10:58.695Z,5.53
2022-09-06T05:14:00.551Z,5.30
2022-09-06T05:17:02.210Z,5.18
2022-09-06T05:20:04.820Z,5.28
2022-09-06T05:23:06.783Z,5.75
2022-09-06T05:26:08.709Z,5.20
2022-09-06T05:29:10.386Z,5.32
2022-09-06T05:32:12.397Z,5.40
2022-09-06T05:35:14.056Z,5.50
2022-09-06T05:38:15.820Z,5.10
2022-09-06T05:41:17.819Z,4.90
2022-09-06T05:44:19.429Z,5.20
2022-09-06T05:47:21.060Z,5.20
2022-09-06T05:50:22.834Z,4.93
2022-09-06T05:53:24.436Z,5.50
2022-09-06T05:56:26.220Z,6.00
2022-09-06T05:59:27.929Z,6.07
2022-09-06T06:02:29.587Z,5.85
2022-09-06T06:05:31.273Z,5.35
2022-09-06T06:08:32.950Z,5.40
2022-09-06T06:11:34.598Z,5.47
2022-09-06T06:14:36.290Z,6.10
2022-09-06T06:17:37.920Z,6.15
2022-09-06T06:20:42.409Z,5.68
2022-09-06T06:23:47.640Z,5.55
2022-09-06T06:26:49.296Z,6.18
2022-09-06T06:29:52.419Z,5.30
2022-09-06T06:32:58.422Z,5.68
2022-09-06T06:36:02.280Z,5.57
2022-09-06T06:39:06.392Z,5.05
2022-09-06T06:42:09.175Z,5.25
2022-09-06T06:45:24.023Z,5.50
2022-09-06T06:48:25.805Z,5.35
2022-09-06T06:51:30.548Z,5.35
2022-09-06T06:54:32.231Z,5.78
2022-09-06T06:57:34.049Z,5.28
2022-09-06T07:00:35.761Z,5.45
2022-09-06T07:03:37.777Z,5.40
2022-09-06T07:13:37.230Z,6.00
2022-09-06T07:16:38.948Z,6.15
2022-09-06T07:26:30.347Z,6.13
2022-09-06T07:29:31.915Z,6.97
2022-09-06T07:32:36.744Z,6.03
2022-09-06T07:35:38.319Z,6.38
2022-09-06T07:38:40.539Z,6.22
2022-09-06T07:41:42.988Z,6.50
2022-09-06T07:44:44.668Z,6.35
2022-09-06T07:47:57.377Z,6.70
2022-09-06T07:51:07.768Z,6.22
2022-09-06T07:57:31.098Z,6.05
2022-09-06T08:00:32.914Z,6.30
2022-09-06T08:03:35.886Z,6.32
2022-09-06T08:10:01.844Z,5.85
2022-09-06T08:13:03.527Z,5.60
2022-09-06T08:16:08.045Z,5.93
2022-09-06T08:19:10.893Z,5.97
2022-09-06T08:22:12.687Z,5.70
2022-09-06T08:25:14.377Z,5.97
2022-09-06T08:28:16.018Z,5.90
2022-09-06T08:31:17.954Z,5.72
2022-09-06T08:34:19.734Z,5.50
2022-09-06T08:37:24.985Z,5.22
2022-09-06T08:40:26.852Z,5.72
2022-09-06T08:43:28.739Z,5.53
2022-09-06T08:46:47.168Z,5.03
2022-09-06T08:49:56.780Z,5.05
2022-09-06T08:53:18.105Z,6.00
2022-09-06T08:56:37.552Z,5.18
2022-09-06T08:59:41.194Z,5.57
2022-09-06T09:02:46.531Z,5.10
2022-09-06T09:05:52.589Z,4.85
2022-09-06T09:09:06.081Z,5.20
2022-09-06T09:12:15.722Z,5.43
2022-09-06T09:15:19.918Z,4.90
2022-09-06T09:18:50.613Z,5.22
2022-09-06T09:21:52.376Z,5.00
2022-09-06T09:24:58.939Z,19.00
2022-09-06T09:28:00.965Z,4.93
2022-09-06T09:31:04.663Z,4.85
2022-09-06T09:34:34.299Z,4.50
2022-09-06T09:42:01.710Z,5.30
2022-09-06T09:45:36.852Z,5.00
2022-09-06T09:48:47.100Z,4.88
2022-09-06T09:52:12.594Z,5.50
2022-09-06T09:55:14.389Z,5.50
2022-09-06T09:58:41.068Z,5.13
2022-09-06T10:01:42.748Z,5.03
2022-09-06T10:04:47.146Z,5.03
2022-09-06T10:08:00.519Z,5.97
2022-09-06T10:11:02.225Z,5.18
2022-09-06T10:14:21.986Z,6.32
2022-09-06T10:17:26.729Z,5.60
2022-09-06T10:20:39.910Z,4.80
2022-09-06T10:27:10.191Z,5.38
2022-09-06T10:30:14.133Z,5.30
2022-09-06T10:33:33.065Z,5.15
2022-09-06T10:36:37.714Z,5.03
2022-09-06T10:40:01.890Z,5.35
2022-09-06T10:43:08.514Z,5.50
2022-09-06T10:46:16.407Z,5.03
2022-09-06T10:49:19.815Z,5.25
2022-09-06T10:52:44.954Z,5.05
2022-09-06T10:55:50.799Z,4.70
2022-09-06T11:02:26.931Z,4.40
2022-09-06T11:09:02.829Z,4.68
2022-09-06T11:12:13.262Z,4.78
2022-09-06T11:16:24.920Z,4.68
2022-09-06T11:19:38.636Z,4.80
2022-09-06T11:26:23.722Z,6.28
2022-09-06T11:29:35.659Z,5.18
2022-09-06T11:33:05.881Z,4.78
2022-09-06T11:36:32.168Z,4.65
2022-09-06T11:43:07.915Z,4.60
2022-09-06T11:46:09.692Z,4.45
2022-09-06T11:49:31.850Z,4.13
2022-09-06T11:53:16.988Z,4.18
2022-09-06T11:56:50.031Z,4.20
2022-09-06T12:00:01.755Z,4.80
2022-09-06T12:07:16.623Z,4.20
2022-09-06T12:10:41.992Z,4.20
2022-09-06T12:13:47.029Z,4.43
2022-09-06T12:17:09.117Z,4.40
2022-09-06T12:20:52.983Z,4.45
2022-09-06T12:24:04.083Z,4.30
2022-09-06T12:27:35.114Z,3.75
2022-09-06T12:30:52.679Z,4.50
2022-09-06T12:33:55.242Z,3.85
2022-09-06T12:37:09.193Z,4.10
2022-09-06T12:40:21.246Z,3.97
2022-09-06T12:43:26.384Z,4.30
2022-09-06T12:46:30.180Z,4.07
2022-09-06T12:49:32.073Z,4.00
2022-09-06T12:52:33.684Z,4.13
2022-09-06T12:55:38.494Z,3.83
2022-09-06T12:58:40.739Z,3.60
2022-09-06T13:02:22.197Z,3.95
2022-09-06T13:05:24.897Z,4.10
2022-09-06T13:08:55.450Z,4.28
2022-09-06T13:12:06.514Z,4.10
2022-09-06T13:15:14.239Z,4.15
2022-09-06T13:18:37.297Z,4.13
2022-09-06T13:21:54.974Z,4.50
2022-09-06T13:25:25.619Z,4.00
2022-09-06T13:28:32.527Z,3.90
2022-09-06T13:31:39.290Z,4.00
2022-09-06T13:34:52.332Z,3.65
2022-09-06T13:38:43.075Z,3.67
2022-09-06T13:41:44.982Z,3.35
2022-09-06T13:44:49.604Z,3.47
2022-09-06T13:48:03.454Z,3.58
2022-09-06T13:51:30.921Z,3.72
2022-09-06T13:54:42.450Z,3.42
2022-09-06T13:57:44.352Z,4.43
2022-09-06T14:00:46.912Z,3.25
2022-09-06T14:03:49.692Z,3.75
2022-09-06T14:06:51.443Z,3.33
2022-09-06T14:09:53.372Z,3.47
2022-09-06T14:12:55.134Z,3.40
2022-09-06T14:16:10.615Z,3.65
2022-09-06T14:19:12.300Z,3.57
2022-09-06T14:22:19.822Z,3.55
2022-09-06T14:25:24.295Z,4.07
2022-09-06T14:28:26.863Z,3.55
2022-09-06T14:31:29.104Z,3.30
2022-09-06T14:34:35.003Z,3.55
2022-09-06T14:37:37.818Z,3.80
2022-09-06T14:40:41.115Z,3.88
2022-09-06T14:43:45.961Z,3.70
2022-09-06T14:46:57.565Z,3.78
2022-09-06T14:50:00.459Z,3.63
2022-09-06T14:53:02.720Z,3.50
2022-09-06T14:56:04.987Z,3.60
2022-09-06T14:59:07.540Z,3.90
2022-09-06T15:02:09.507Z,3.25
2022-09-06T15:05:11.283Z,3.53
2022-09-06T15:08:15.291Z,3.85
2022-09-06T15:11:52.235Z,3.60
2022-09-06T15:14:53.962Z,3.47
2022-09-06T15:17:55.725Z,3.70
2022-09-06T15:21:14.568Z,3.80
2022-09-06T15:24:18.714Z,3.70
2022-09-06T15:27:20.429Z,3.45
2022-09-06T15:30:22.315Z,3.45
2022-09-06T15:33:23.985Z,3.65
2022-09-06T15:36:25.739Z,3.70
2022-09-06T15:39:30.406Z,3.72
2022-09-06T15:42:32.494Z,4.40
2022-09-06T15:45:47.663Z,3.65
2022-09-06T15:48:52.343Z,3.33
2022-09-06T15:52:06.017Z,3.70
2022-09-06T15:55:41.624Z,3.85
2022-09-06T15:58:46.377Z,3.85
2022-09-06T16:01:48.320Z,3.78
2022-09-06T16:04:50.092Z,3.72
2022-09-06T16:07:51.878Z,3.53
2022-09-06T16:10:53.873Z,3.78
2022-09-06T16:13:56.234Z,3.70
2022-09-06T16:16:58.141Z,3.70
2022-09-06T16:20:01.168Z,3.65
2022-09-06T16:23:02.871Z,3.80
2022-09-06T16:26:09.057Z,4.18
2022-09-06T16:29:17.294Z,4.00
2022-09-06T16:32:19.233Z,3.95
2022-09-06T16:35:20.866Z,3.72
2022-09-06T16:38:22.673Z,3.95
2022-09-06T16:41:31.304Z,3.90
2022-09-06T16:44:32.992Z,3.75
2022-09-06T16:47:34.626Z,4.57
2022-09-06T16:50:36.345Z,3.85
2022-09-06T16:53:43.296Z,4.00
2022-09-06T16:56:45.621Z,4.00
2022-09-06T16:59:48.622Z,4.18
2022-09-06T17:02:50.480Z,4.20
2022-09-06T17:05:55.498Z,4.22
2022-09-06T17:09:01.111Z,3.80
2022-09-06T17:12:12.746Z,4.30
2022-09-06T17:15:14.478Z,3.97
2022-09-06T17:18:16.444Z,3.80
2022-09-06T17:21:19.264Z,3.70
2022-09-06T17:24:22.257Z,3.60
2022-09-06T17:27:26.052Z,3.83
2022-09-06T17:30:27.995Z,3.50
2022-09-06T17:33:31.224Z,3.40
2022-09-06T17:36:36.098Z,3.70
2022-09-06T17:39:38.611Z,3.70
2022-09-06T17:42:40.359Z,4.07
2022-09-06T17:45:42.934Z,3.90
2022-09-06T17:48:44.800Z,3.70
2022-09-06T17:51:49.323Z,3.65
2022-09-06T17:54:51.168Z,3.65
2022-09-06T17:57:53.039Z,3.75
2022-09-06T18:00:57.634Z,3.78
2022-09-06T18:04:00.044Z,3.42
2022-09-06T18:07:02.304Z,3.33
2022-09-06T18:10:04.345Z,3.65
2022-09-06T18:13:06.606Z,3.58
2022-09-06T18:16:09.383Z,3.50
2022-09-06T18:19:15.175Z,3.20
2022-09-06T18:22:19.287Z,3.50
2022-09-06T18:25:21.233Z,3.30
2022-09-06T18:28:32.073Z,3.42
2022-09-06T18:31:34.236Z,3.63
2022-09-06T18:34:46.587Z,3.13
2022-09-06T18:42:29.351Z,3.30
2022-09-06T18:45:43.094Z,3.17
2022-09-06T18:49:03.363Z,3.17
2022-09-06T18:56:26.188Z,3.50
2022-09-06T19:00:50.124Z,3.35
2022-09-06T19:03:10.026Z,3.75
2022-09-06T19:07:14.079Z,3.67
2022-09-06T19:10:10.930Z,3.90
2022-09-06T19:21:00.787Z,4.43
2022-09-06T19:24:05.200Z,4.47
2022-09-06T19:27:10.679Z,4.47
2022-09-06T19:32:31.038Z,4.35
2022-09-06T19:34:38.103Z,4.45
2022-09-06T19:37:39.971Z,4.28
2022-09-06T19:40:54.110Z,4.18
2022-09-06T19:43:57.477Z,4.28
2022-09-06T19:47:00.326Z,4.00
2022-09-06T19:50:03.665Z,4.20
2022-09-06T19:53:07.426Z,4.07
2022-09-06T19:56:09.673Z,3.65
2022-09-06T19:59:12.925Z,4.00
2022-09-06T20:02:14.686Z,3.78
2022-09-06T20:05:18.014Z,3.80
2022-09-06T20:08:19.680Z,3.80
2022-09-06T20:11:25.556Z,3.63
2022-09-06T20:14:27.281Z,4.10
2022-09-06T20:17:33.792Z,3.88
2022-09-06T20:20:35.934Z,4.03
2022-09-06T20:23:37.845Z,3.78
2022-09-06T20:26:40.670Z,4.18
2022-09-06T20:29:42.477Z,3.92
2022-09-06T20:32:44.156Z,4.03
2022-09-06T20:35:54.744Z,4.75
2022-09-06T20:38:56.789Z,4.30
2022-09-06T20:41:58.577Z,4.03
2022-09-06T20:45:00.382Z,3.92
2022-09-06T20:48:02.310Z,4.28
2022-09-06T20:51:07.133Z,4.35
2022-09-06T20:54:10.513Z,4.38
2022-09-06T20:57:12.238Z,4.20
2022-09-06T21:00:14.648Z,4.25
2022-09-06T21:03:16.402Z,4.18
2022-09-06T21:06:18.904Z,3.75
2022-09-06T21:09:20.633Z,4.40
2022-09-06T21:12:22.369Z,4.40
2022-09-06T21:15:24.021Z,4.20
2022-09-06T21:18:27.529Z,4.32
2022-09-06T21:21:30.512Z,4.22
2022-09-06T21:24:33.906Z,4.93
2022-09-06T21:27:37.837Z,4.60
2022-09-06T21:30:39.608Z,4.45
2022-09-06T21:33:43.636Z,4.60
2022-09-06T21:36:45.371Z,4.53
2022-09-06T21:39:47.499Z,4.93
2022-09-06T21:42:49.235Z,4.60
2022-09-06T21:45:50.947Z,5.13
2022-09-06T21:48:54.303Z,4.70
2022-09-06T21:51:55.995Z,5.22
2022-09-06T21:54:57.926Z,5.22
2022-09-06T21:57:59.677Z,4.90
2022-09-06T22:01:02.194Z,5.25
2022-09-06T22:04:06.014Z,5.43
2022-09-06T22:07:07.828Z,5.05
2022-09-06T22:10:09.664Z,5.25
2022-09-06T22:13:11.411Z,5.35
2022-09-06T22:16:15.183Z,5.53
2022-09-06T22:19:16.905Z,6.03
2022-09-06T22:22:18.965Z,5.70
2022-09-06T22:25:20.704Z,5.78
2022-09-06T22:28:22.449Z,5.47
2022-09-06T22:31:26.832Z,5.20
2022-09-06T22:34:28.859Z,5.38
2022-09-06T22:37:30.637Z,5.75
2022-09-06T22:40:32.336Z,5.95
2022-09-06T22:43:34.066Z,5.20
2022-09-06T22:46:36.094Z,5.40
2022-09-06T22:49:37.832Z,5.95
2022-09-06T22:52:39.536Z,5.35
2022-09-06T22:55:46.831Z,5.80
2022-09-06T22:58:48.651Z,6.18
2022-09-06T23:01:50.498Z,6.03
2022-09-06T23:04:52.252Z,5.75
2022-09-06T23:07:54.056Z,6.05
2022-09-06T23:10:55.732Z,5.53
2022-09-06T23:13:58.909Z,6.18
2022-09-06T23:17:00.680Z,5.85
2022-09-06T23:20:03.886Z,5.78
2022-09-06T23:23:07.309Z,6.05
2022-09-06T23:26:16.343Z,5.72
2022-09-06T23:29:18.011Z,5.88
2022-09-06T23:32:20.010Z,5.50
2022-09-06T23:35:22.275Z,5.43
2022-09-06T23:38:23.955Z,5.75
2022-09-06T23:41:25.918Z,6.22
2022-09-06T23:44:28.189Z,5.88
2022-09-06T23:47:30.184Z,6.35
2022-09-06T23:50:32.161Z,5.85
2022-09-06T23:53:34.055Z,5.95
2022-09-06T23:56:35.858Z,6.07
2022-09-06T23:59:37.593Z,5.93
